Saint Rocks, Vermont
Current Conditions -  °F | °C
As of 11:15 AM on Friday 21 Nov 2014 (Local Time) from KFSO Reporting Station
Scattered Clouds Scattered Clouds  
Wind Chill: 13°   Ceiling: Unl
Heat Index: 24°   Visibility: 10mi
Dew Point: 12°   Wind: 12mph
Humidity: 61%   Direction: 290°WNW
Pressure: 30.19"   Gusts: 18mph
Location:  44.8776°N, 72.9201°W
Report Text: KFSO 211615Z AUTO 29010G16KT 250V320 10SM SCT025 M05/M11 A3019 RMK AO2 T10461112
Loading
Personal Weather Stations






























Interactive Weather Map New forecast layout! Learn more

10-Day Weather Forecast

Advertisements
Track Severe Weather on mobile